Tiempo atmosférico en la estación meteorológica de Llorac, Tarragona (660 m.)



Fecha
DESCASC
Temp. máxima en grados centígrados (hora)
DESCASC
Temp. mínima en grados centígrados (hora)
DESCASC
Temp. media en grados centígrados
DESCASC
Racha de viento máxima en m/sg (hora)
DESCASC
Velocidad máxima media en intervalos de 10 minutos(hora)
DESCASC
Precipitaciones diarias en mm
DESCASC
Precipitaciones de 00:00 a 06:00 en mm
DESCASC
Precipitaciones de 06:00 a 12:00 en mm
DESCASC
Precipitaciones de 12:00 a 18:00 en mm
DESCASC
Precipitaciones de 18:00 a 24:00 en mm
DESCASC
13-10-2019 24.7 (15:30) 14.7 (06:30) 19.7 9.17 (19:20) 5.83 (19:20) 0 0 0 0 0
12-10-2019 22.7 (15:10) 15.6 (23:00) 19.2 10 (15:40) 6.39 (21:00) 0 0 0 0 0
10-10-2019 19.9 (16:50) 12 (00:00) 15.9 6.11 (17:20) 4.17 (13:30) 0 0 0 0 0
09-10-2019 22.4 (17:30) 14.1 (00:00) 18.3 7.22 (16:40) 5 (17:00) 0 0 0 0 0
08-10-2019 22.9 (15:30) 8.8 (00:00) 15.8 7.22 (10:50) 4.72 (21:30) 0 0 0 0 0
07-10-2019 21 (18:10) 9.7 (00:00) 15.3 11.11 (01:50) 7.78 (13:30) 0 0 0 0 0
06-10-2019 19.9 (17:00) 10.7 (00:00) 15.3 9.72 (17:50) 6.94 (17:50) 0 0 0 0 0
05-10-2019 23.6 (16:00) 7 (08:20) 15.3 6.94 (16:20) 4.17 (15:10) 0 0 0 0 0
04-10-2019 23.3 (15:50) 2.2 (00:00) 12.7 10.28 (16:50) 7.22 (17:00) 0 0 0 0 0
03-10-2019 20.6 (16:20) 6.9 (00:00) 13.8 11.67 (12:00) 8.33 (11:30) 0 0 0 0 0
02-10-2019 22.5 (17:10) 13.2 (00:00) 17.8 12.5 (16:20) 9.72 (10:10) 0 0 0 0 0
01-10-2019 26.8 (16:10) 8.7 (00:00) 17.7 8.33 (16:00) 6.39 (17:30) 0 0 0 0 0
30-09-2019 25.6 (15:00) 8.1 (00:00) 16.9 7.5 (18:00) 5 (17:40) 0 0 0 0 0
29-09-2019 27.8 (17:10) 9.9 (00:00) 18.8 8.89 (16:40) 6.39 (17:00) 0 0 0 0 0
28-09-2019 23.2 (15:10) 13.8 (00:00) 18.5 7.5 (16:20) 3.89 (16:30) 0 0 0 0 0
27-09-2019 26.8 (17:10) 10.9 (00:00) 18.8 7.5 (15:10) 4.72 (15:10) 0 0 0 0 0
26-09-2019 25.5 (17:50) 8 (00:00) 16.8 7.22 (15:50) 4.72 (16:10) 0 0 0 0 0
25-09-2019 22.6 (15:40) 12.5 (00:00) 17.6 11.11 (17:00) 7.5 (13:10) 0 0 0 0 0
24-09-2019 26.5 (17:30) 7.9 (00:00) 17.2 11.39 (12:30) 8.89 (12:30) 0 0 0 0 0
23-09-2019 21.9 (15:20) 7.7 (00:00) 14.8 10.83 (15:50) 6.67 (14:00) 0 0 0 0 0
22-09-2019 24.9 (16:40) 14.1 (00:00) 19.5 12.22 (19:50) 6.94 (20:00) 0 0 0 0 0
21-09-2019 22.8 (14:10) 15.6 (00:00) 19.2 8.33 (16:00) 4.44 (01:40) 12.6 0 3.4 9.2 0
20-09-2019 26.2 (15:30) 9.9 (00:00) 18.1 8.61 (16:10) 5 (10:00) 0 0 0 0 0
19-09-2019 27.3 (14:10) 11.9 (00:00) 19.6 9.72 (18:00) 5.56 (18:00) 0 0 0 0 0
18-09-2019 29 (14:50) 10.7 (00:00) 19.8 7.22 (17:10) 4.17 (13:10) 0 0 0 0 0
17-09-2019 29.9 (15:00) 8.5 (00:00) 19.2 7.78 (15:30) 4.72 (17:30) 0 0 0 0 0

Gráficas

Temp. máximas Temp. mínimas Temp. medias Precipitaciones Rachas de viento máximas Velocidades máximas media en intervalos de 10 minutos

Datos horarios

Fecha y hora oficial Temperatura (ºC) Velocidad del viento (km/h) Dirección del viento Racha (km/h) Dirección de racha Precipitación (mm) Presión (hPa) Tendencia (hPa) Humedad (%)
2019-10-16 23:00:00 4.8 6 Sudeste 9 Sudeste 0 -- -- 89
2019-10-16 22:00:00 5.7 5 Sudeste 8 Sudeste 0 -- -- 85
2019-10-16 21:00:00 7.3 4 Sudeste 7 Sudeste 0 -- -- 79
2019-10-16 20:00:00 10.4 4 Nordeste 8 Sudeste 0 -- -- 71
2019-10-16 19:00:00 14.8 4 Sudoeste 19 Noroeste 0 -- -- 55
2019-10-16 18:00:00 16.3 15 Noroeste 26 Noroeste 0 -- -- 50
2019-10-16 17:00:00 17.3 15 Noroeste 25 Noroeste 0 -- -- 46
2019-10-16 16:00:00 17 18 Noroeste 25 Noroeste 0 -- -- 46
2019-10-16 15:00:00 17.1 17 Noroeste 27 Noroeste 0 -- -- 47
2019-10-16 14:00:00 16.5 18 Noroeste 26 Noroeste 0 -- -- 46
2019-10-16 13:00:00 15.4 18 Noroeste 28 Noroeste 0 -- -- 49
2019-10-16 12:00:00 14.7 21 Noroeste 27 Noroeste 0 -- -- 52
2019-10-16 11:00:00 14.2 15 Noroeste 22 Oeste 0 -- -- 54
2019-10-16 10:00:00 12 4 Noroeste 9 Noroeste 0 -- -- 64
2019-10-16 09:00:00 6.3 2 Sudeste 6 Sudeste 0 -- -- 91
2019-10-16 08:00:00 4.7 5 Sudeste 6 Sudeste 0 -- -- 94
2019-10-16 07:00:00 4.8 5 Sudeste 7 Sudeste 0 -- -- 94
2019-10-16 06:00:00 4 4 Sudeste 6 Sudeste 0 -- -- 95
2019-10-16 05:00:00 2.5 5 Sudeste 8 Sudeste 0 -- -- 96
2019-10-16 04:00:00 2.3 5 Sudeste 9 Sudeste 0 -- -- 94
2019-10-16 03:00:00 3 5 Sudeste 9 Sudeste 0 -- -- 92
2019-10-16 02:00:00 5 6 Noroeste 10 Noroeste 0 -- -- 90
2019-10-16 01:00:00 4.8 3 Noroeste 10 Noroeste 0 -- -- 85
2019-10-16 00:00:00 4.8 5 Sudeste 11 Sudeste 0 -- -- 88
2019-10-15 23:00:00 5.8 6 Sudeste 9 Sudeste 0 -- -- 85
2019-10-15 22:00:00 7.3 3 Sudeste 10 Noroeste 0 -- -- 82
2019-10-15 21:00:00 8.9 3 Oeste 19 Noroeste 0 -- -- 77
2019-10-15 20:00:00 10.8 6 Noroeste 22 Oeste 0 -- -- 70
2019-10-15 19:00:00 12.8 8 Oeste 27 Noroeste 0 -- -- 63
2019-10-15 18:00:00 14.3 21 Oeste 38 Oeste 0 -- -- 55
2019-10-15 17:00:00 14.7 23 Noroeste 48 Oeste 0 -- -- 54
2019-10-15 16:00:00 14.4 26 Noroeste 57 Noroeste 0 -- -- 57
2019-10-15 15:00:00 13.5 39 Noroeste 63 Noroeste 0 -- -- 59
2019-10-15 14:00:00 12.4 46 Noroeste 61 Oeste 0 -- -- 62
2019-10-15 13:00:00 11.7 40 Noroeste 60 Noroeste 0 -- -- 68
2019-10-15 12:00:00 10.6 39 Noroeste 51 Noroeste 0 -- -- 74
2019-10-15 11:00:00 9.7 35 Noroeste 51 Noroeste 0 -- -- 75
2019-10-15 10:00:00 9.2 30 Noroeste 48 Noroeste 0 -- -- 78
2019-10-15 09:00:00 8.3 16 Noroeste 35 Noroeste 0 -- -- 84
2019-10-15 08:00:00 8.1 27 Noroeste 60 Noroeste 0 -- -- 88
2019-10-15 07:00:00 8.4 30 Noroeste 44 Noroeste 0 -- -- 87
2019-10-15 06:00:00 8.5 26 Noroeste 41 Oeste 0 -- -- 87
2019-10-15 05:00:00 9 15 Noroeste 26 Noroeste 0 -- -- 86
2019-10-15 04:00:00 9.7 12 Noroeste 40 Noroeste 0 -- -- 85
2019-10-15 03:00:00 9.9 23 Noroeste 37 Noroeste 0 -- -- 87
2019-10-15 02:00:00 10.4 21 Noroeste 45 Oeste 0.2 -- -- 92
2019-10-15 01:00:00 11.3 32 Noroeste 59 Noroeste 2.6 -- -- 92
2019-10-15 00:00:00 13.9 6 Norte 28 Oeste 0 -- -- 97
2019-10-14 23:00:00 13.6 3 Sudeste 37 Noroeste 3.6 -- -- 94
2019-10-14 22:00:00 16.6 12 Sudeste 30 Sudeste 0 -- -- 84
2019-10-14 21:00:00 16.2 10 Sudeste 30 Sudeste 0 -- -- 88
2019-10-14 20:00:00 16.3 8 Sur 27 Sudeste 0 -- -- 86
2019-10-14 19:00:00 17.2 17 Sudeste 25 Este 0.2 -- -- 92
2019-10-14 18:00:00 17.9 11 Sudeste 17 Sudeste 0.2 -- -- 90
2019-10-14 17:00:00 18.1 5 Sudoeste 13 Sudoeste 0.2 -- -- 89
2019-10-14 16:00:00 18.8 11 Oeste 29 Oeste 1.8 -- -- 84
2019-10-14 15:00:00 21.6 8 Sudoeste 26 Sur 0 -- -- 63
2019-10-14 14:00:00 21.5 9 Sudoeste 41 Sudeste 0 -- -- 65
2019-10-14 13:00:00 20.4 22 Sudeste 36 Sudeste 0 -- -- 72
2019-10-14 12:00:00 19.7 18 Sudeste 36 Sudeste 0 -- -- 77
2019-10-14 11:00:00 18.1 24 Sudeste 37 Sudeste 0 -- -- 83
2019-10-14 10:00:00 17.3 19 Sudeste 32 Sudeste 0 -- -- 91
2019-10-14 09:00:00 15.6 17 Sudeste 30 Sudeste 0 -- -- 96
2019-10-14 08:00:00 15.5 13 Sudeste 23 Sudeste 0 -- -- 97
2019-10-14 07:00:00 15.4 13 Sudeste 20 Sudeste 0 -- -- 98
2019-10-14 06:00:00 15.4 13 Sudeste 18 Sudeste 0 -- -- 97
2019-10-14 05:00:00 15.5 10 Sudeste 16 Sudeste 0 -- -- 98
2019-10-14 04:00:00 14.5 11 Sudeste 16 Sudeste 0 -- -- 98
2019-10-14 03:00:00 15.2 12 Sudeste 21 Sudeste 0 -- -- 95
2019-10-14 02:00:00 15.8 15 Sudeste 21 Sudeste 0 -- -- 93
2019-10-14 01:00:00 15.9 12 Sudeste 22 Sudeste 0 -- -- 91
2019-10-14 00:00:00 15.7 14 Sudeste 24 Sudeste 0 -- -- 93
2019-10-13 23:00:00 16.4 13 Sudeste 26 Sudeste 0 -- -- 90
2019-10-13 22:00:00 17 15 Sudeste 27 Sudeste 0 -- -- 88
2019-10-13 21:00:00 17.2 19 Sudeste 30 Sudeste 0 -- -- 87
2019-10-13 20:00:00 17.8 14 Sudeste 33 Sudeste 0 -- -- 86
2019-10-13 19:00:00 19.4 17 Sudeste 29 Este 0 -- -- 78
2019-10-13 18:00:00 21.5 18 Sudeste 26 Sudeste 0 -- -- 70
2019-10-13 17:00:00 22.4 17 Sudeste 31 Sudeste 0 -- -- 65
2019-10-13 16:00:00 24.7 17 Sudeste 32 Sudeste 0 -- -- 53
2019-10-13 15:00:00 23.6 15 Sudeste 24 Sudeste 0 -- -- 59
2019-10-13 14:00:00 23.8 14 Sudeste 26 Sudeste 0 -- -- 58
2019-10-13 13:00:00 22 13 Este 23 Sudeste 0 -- -- 66
2019-10-13 12:00:00 20.1 11 Sudeste 23 Sudeste 0 -- -- 74
2019-10-13 11:00:00 19.5 16 Sudeste 23 Sudeste 0 -- -- 79
2019-10-13 10:00:00 17.9 12 Sudeste 20 Sudeste 0 -- -- 88
2019-10-13 09:00:00 15.9 4 Sudeste 10 Sudeste 0 -- -- 97
2019-10-13 08:00:00 15.7 8 Sudeste 18 Sudeste 0 -- -- 96
2019-10-13 07:00:00 15.2 9 Sudeste 12 Sudeste 0 -- -- 98
2019-10-13 06:00:00 15.6 3 Sudeste 12 Sudeste 0 -- -- 95
2019-10-13 05:00:00 16 3 Oeste 19 Sudeste 0 -- -- 96
2019-10-13 04:00:00 15.9 13 Sudeste 22 Sudeste 0 -- -- 95
2019-10-13 03:00:00 16.4 10 Sudeste 18 Sudeste 0 -- -- 93
2019-10-13 02:00:00 15.9 11 Sudeste 16 Sudeste 0 -- -- 94
2019-10-13 01:00:00 15.6 11 Sudeste 24 Sudeste 0 -- -- 94
2019-10-13 00:00:00 15.7 15 Sudeste 24 Sudeste 0 -- -- 93
2019-10-12 23:00:00 15.6 14 Sudeste 29 Sudeste 0 -- -- 91
2019-10-12 22:00:00 16.4 15 Sudeste 28 Sudeste 0 -- -- 90
2019-10-12 21:00:00 17.1 23 Sudeste 31 Sudeste 0 -- -- 88
2019-10-12 20:00:00 17.7 21 Sudeste 33 Sudeste 0 -- -- 84
2019-10-12 19:00:00 18.6 22 Sudeste 34 Sur 0 -- -- 80
2019-10-12 18:00:00 20.7 12 Sur 31 Sudeste 0 -- -- 69
2019-10-12 17:00:00 20.9 17 Sudeste 33 Sudeste 0 -- -- 66
2019-10-12 16:00:00 21.2 14 Sudeste 36 Sudeste 0 -- -- 65
2019-10-12 15:00:00 22.4 17 Sur 35 Sudeste 0 -- -- 63
2019-10-12 14:00:00 21.8 17 Sur 34 Sudeste 0 -- -- 66
2019-10-12 13:00:00 20.7 18 Sur 31 Sudeste 0 -- -- 73
2019-10-12 12:00:00 20.5 16 Sur 33 Sudeste 0 -- -- 77
2019-10-12 11:00:00 19.3 17 Sudeste 31 Sudeste 0 -- -- 84
2019-10-12 10:00:00 18.4 12 Sudeste 21 Sudeste 0 -- -- 90
2019-10-12 09:00:00 17.5 9 Sudeste 30 Sudeste 0 -- -- 91
2019-10-12 08:00:00 17.3 15 Sudeste 26 Sudeste 0 -- -- 92
2019-10-12 07:00:00 17.1 11 Sudeste 26 Sudeste 0 -- -- 89
2019-10-12 06:00:00 17.4 14 Sudeste 31 Sudeste 0 -- -- 88
2019-10-12 05:00:00 17.1 11 Sudeste 18 Sudeste 0 -- -- 91
2019-10-12 04:00:00 17.1 7 Sudeste 18 Sudeste 0 -- -- 89
2019-10-12 03:00:00 17.2 9 Sudeste 19 Sudeste 0 -- -- 90
2019-10-12 02:00:00 17.1 8 Sudeste 24 Sudeste 0 -- -- 90
2019-10-12 01:00:00 17.5 10 Sudeste 22 Sur 0 -- -- 90
2019-10-12 00:00:00 17.8 8 Sudeste 25 Sudeste 0 -- -- 90
2019-10-11 23:00:00 17.7 12 Sudeste 26 Sudeste 0 -- -- 90
2019-10-11 22:00:00 17.7 13 Sudeste 27 Sudeste 0 -- -- 91
2019-10-11 21:00:00 17.4 17 Sudeste 35 Sudeste 0 -- -- 89
2019-10-11 20:00:00 17.8 14 Sudeste 26 Sur 0 -- -- 89
2019-10-11 19:00:00 17.9 14 Sudeste 30 Sur 0 -- -- 85
2019-10-11 18:00:00 20 15 Sur 31 Sudoeste 0 -- -- 75
2019-10-11 17:00:00 20.9 15 Sur 28 Sudeste 0 -- -- 73
2019-10-11 16:00:00 21.4 16 Sur 27 Sudoeste 0 -- -- 72
2019-10-11 15:00:00 20.8 13 Sur 23 Sur 0 -- -- 74
2019-10-11 14:00:00 20 10 Sudoeste 24 Sur 0 -- -- 76
2019-10-11 13:00:00 18.9 9 Sur 22 Sur 0 -- -- 79
2019-10-11 12:00:00 18.6 10 Sur 20 Sudoeste 0 -- -- 80
2019-10-11 11:00:00 17.6 8 Sur 22 Sur 0 -- -- 84
2019-10-11 10:00:00 16.5 5 Sudoeste 12 Sur 0 -- -- 88
2019-10-11 09:00:00 15.9 4 Sur 11 Sudeste 0 -- -- 92
2019-10-11 08:00:00 15.6 3 Sur 8 Sur 0 -- -- 94
2019-10-11 07:00:00 15 5 Sur 9 Sudoeste 0 -- -- 98
2019-10-11 06:00:00 14.3 3 Sudeste 7 Sur 0 -- -- 95
2019-10-11 05:00:00 15.7 7 Sudeste 10 Sudeste 0 -- -- 95
2019-10-11 04:00:00 15.4 3 Nordeste 7 Sudeste 0 -- -- 96
2019-10-11 03:00:00 15.1 4 Este 9 Este 0 -- -- 96
2019-10-11 02:00:00 15.1 0 Calma 13 Sudeste 0 -- -- 95
2019-10-11 01:00:00 14.9 5 Sur 17 Sur 0 -- -- 95
2019-10-11 00:00:00 15 8 Sur 19 Sur 0 -- -- 94
2019-10-10 23:00:00 15 4 Sudoeste 17 Sudeste 0 -- -- 94
2019-10-10 22:00:00 14.8 7 Sur 15 Sur 0 -- -- 92
2019-10-10 21:00:00 13.6 8 Sudeste 12 Sudeste 0 -- -- 93
2019-10-10 20:00:00 14.3 7 Sudeste 19 Sur 0 -- -- 88
2019-10-10 19:00:00 16.2 9 Sur 20 Sudoeste 0 -- -- 79
2019-10-10 18:00:00 18.5 10 Sudoeste 22 Sur 0 -- -- 66
2019-10-10 17:00:00 19.6 8 Sur 17 Sudoeste 0 -- -- 62
2019-10-10 16:00:00 19.1 10 Noroeste 18 Oeste 0 -- -- 49
2019-10-10 15:00:00 18.4 13 Noroeste 19 Noroeste 0 -- -- 50
2019-10-10 14:00:00 17.6 14 Noroeste 19 Noroeste 0 -- -- 54
2019-10-10 13:00:00 18.3 7 Noroeste 16 Oeste 0 -- -- 50
2019-10-10 12:00:00 16.6 7 Noroeste 13 Oeste 0 -- -- 56
2019-10-10 11:00:00 14.7 5 Norte 13 Noroeste 0 -- -- 65
2019-10-10 10:00:00 12.6 9 Noroeste 13 Noroeste 0 -- -- 72
2019-10-10 09:00:00 12 4 Noroeste 10 Noroeste 0 -- -- 74
2019-10-10 08:00:00 12.1 5 Noroeste 12 Noroeste 0 -- -- 75
2019-10-10 07:00:00 12.3 7 Noroeste 12 Noroeste 0 -- -- 76
2019-10-10 06:00:00 12.4 6 Noroeste 10 Noroeste 0 -- -- 79
2019-10-10 05:00:00 12.9 5 Noroeste 8 Oeste 0 -- -- 93
2019-10-10 04:00:00 14.5 3 Noroeste 14 Sudoeste 0 -- -- 92
2019-10-10 03:00:00 14.6 6 Sur 18 Sudoeste 0 -- -- 91
2019-10-10 02:00:00 15 8 Sur 17 Sur 0 -- -- 92
2019-10-10 01:00:00 15.6 7 Sudoeste 16 Sur 0 -- -- 93
2019-10-10 00:00:00 15 5 Oeste 12 Sudoeste 0 -- -- 89
2019-10-09 23:00:00 17.3 4 Sur 17 Sur 0 -- -- 87
2019-10-09 22:00:00 17.6 9 Sudoeste 19 Sur 0 -- -- 92
2019-10-09 21:00:00 17.6 8 Sur 18 Sur 0 -- -- 91
2019-10-09 20:00:00 16.9 3 Nordeste 11 Oeste 0 -- -- 77
2019-10-09 19:00:00 20.3 9 Oeste 24 Noroeste 0 -- -- 67
2019-10-09 18:00:00 22.2 13 Noroeste 22 Noroeste 0 -- -- 61
2019-10-09 17:00:00 22 18 Noroeste 26 Noroeste 0 -- -- 63
2019-10-09 16:00:00 21.7 13 Noroeste 22 Noroeste 0 -- -- 66
2019-10-09 15:00:00 20.7 12 Noroeste 21 Noroeste 0 -- -- 74
2019-10-09 14:00:00 19.3 15 Noroeste 22 Noroeste 0 -- -- 79
2019-10-09 13:00:00 18.9 13 Oeste 21 Oeste 0 -- -- 79
2019-10-09 12:00:00 19 6 Noroeste 14 Noroeste 0 -- -- 79
2019-10-09 11:00:00 18.1 6 Oeste 15 Oeste 0 -- -- 83
2019-10-09 10:00:00 17.7 7 Oeste 12 Oeste 0 -- -- 94
2019-10-09 09:00:00 16.7 4 Sudeste 9 Sudeste 0 -- -- 98
2019-10-09 08:00:00 16 4 Sudeste 14 Sudeste 0 -- -- 97
2019-10-09 07:00:00 16.6 7 Sudeste 17 Sur 0 -- -- 98
2019-10-09 06:00:00 16.1 12 Sudeste 19 Este 0 -- -- 97
2019-10-09 05:00:00 15.5 13 Sudeste 18 Este 0 -- -- 98
2019-10-09 04:00:00 14.3 5 Sudeste 11 Sudeste 0 -- -- 97
2019-10-09 03:00:00 15.2 6 Sudeste 19 Sudeste 0 -- -- 95
2019-10-09 02:00:00 16.3 12 Este 19 Sudeste 0 -- -- 95
2019-10-09 01:00:00 14.3 8 Sudeste 19 Este 0 -- -- 95
2019-10-09 00:00:00 15.8 15 Este 22 Este 0 -- -- 93
2019-10-08 23:00:00 15.6 12 Este 21 Este 0 -- -- 92
2019-10-08 22:00:00 16.1 15 Este 21 Este 0 -- -- 91
2019-10-08 21:00:00 16.6 14 Este 19 Sudeste 0 -- -- 88
2019-10-08 20:00:00 17.6 8 Sudeste 21 Sur 0 -- -- 83
2019-10-08 19:00:00 19.4 12 Sur 22 Sudoeste 0 -- -- 74
2019-10-08 18:00:00 21.5 11 Sur 21 Sudoeste 0 -- -- 67
2019-10-08 17:00:00 22.6 11 Sudoeste 23 Sur 0 -- -- 63
2019-10-08 16:00:00 22.8 10 Sur 20 Sur 0 -- -- 62
2019-10-08 15:00:00 22.6 9 Sur 22 Sur 0 -- -- 59
2019-10-08 14:00:00 22 12 Sudoeste 21 Sur 0 -- -- 59
2019-10-08 13:00:00 21.5 9 Sudoeste 22 Sudeste 0 -- -- 61
2019-10-08 12:00:00 20.2 12 Sur 23 Sur 0 -- -- 66
2019-10-08 11:00:00 18.7 13 Sur 26 Sur 0 -- -- 73
2019-10-08 10:00:00 17 13 Sudoeste 24 Sur 0 -- -- 85
2019-10-08 09:00:00 11.2 7 Sudeste 11 Sur 0 -- -- 100
2019-10-08 08:00:00 8.8 8 Sudeste 9 Sudeste 0 -- -- 99
2019-10-08 07:00:00 9.6 6 Sudeste 9 Sudeste 0 -- -- 99
2019-10-08 06:00:00 9.6 5 Sudeste 10 Sudeste 0 -- -- 98
2019-10-08 05:00:00 9.8 7 Sudeste 12 Sur 0 -- -- 98
2019-10-08 04:00:00 9.8 6 Sudeste 13 Sudeste 0 -- -- 97
2019-10-08 03:00:00 10.1 9 Sudeste 14 Sudeste 0 -- -- 97
2019-10-08 02:00:00 10.2 12 Sudeste 14 Sudeste 0 -- -- 96
2019-10-08 01:00:00 10.4 12 Sudeste 14 Sudeste 0 -- -- 94
2019-10-08 00:00:00 10.1 9 Sudeste 14 Sudeste 0 -- -- 86
2019-10-07 23:00:00 9.9 9 Sudeste 12 Este 0 -- -- 78
2019-10-07 22:00:00 10.6 8 Sudeste 14 Este 0 -- -- 69
2019-10-07 21:00:00 11.8 6 Sudeste 9 Sudeste 0 -- -- 63
2019-10-07 20:00:00 14 4 Sudeste 6 Sudeste 0 -- -- 56
2019-10-07 19:00:00 19.1 3 Sur 20 Noroeste 0 -- -- 40
2019-10-07 18:00:00 20.7 9 Noroeste 26 Noroeste 0 -- -- 39
2019-10-07 17:00:00 19.9 23 Noroeste 33 Oeste 0 -- -- 41
2019-10-07 16:00:00 19.1 21 Noroeste 33 Oeste 0 -- -- 44
2019-10-07 15:00:00 18.5 23 Noroeste 39 Noroeste 0 -- -- 47
2019-10-07 14:00:00 17.9 23 Noroeste 37 Noroeste 0 -- -- 50
2019-10-07 13:00:00 15.4 21 Oeste 36 Oeste 0 -- -- 58
2019-10-07 12:00:00 13.8 21 Noroeste 32 Noroeste 0 -- -- 64
2019-10-07 11:00:00 14.5 22 Noroeste 33 Noroeste 0 -- -- 61
2019-10-07 10:00:00 12.8 21 Noroeste 30 Noroeste 0 -- -- 66
2019-10-07 09:00:00 10.6 19 Noroeste 25 Noroeste 0 -- -- 72
2019-10-07 08:00:00 9.9 12 Noroeste 22 Noroeste 0 -- -- 74
2019-10-07 07:00:00 10.5 17 Noroeste 24 Noroeste 0 -- -- 70
2019-10-07 06:00:00 11.4 20 Noroeste 33 Oeste 0 -- -- 67
2019-10-07 05:00:00 11.9 20 Noroeste 29 Noroeste 0 -- -- 69
2019-10-07 04:00:00 12.7 22 Noroeste 35 Oeste 0 -- -- 69
2019-10-07 03:00:00 13.3 19 Noroeste 40 Noroeste 0 -- -- 66
2019-10-07 02:00:00 14.1 22 Noroeste 40 Noroeste 0 -- -- 63
2019-10-07 01:00:00 14.7 21 Noroeste 34 Noroeste 0 -- -- 60
2019-10-07 00:00:00 14.9 9 Noroeste 20 Oeste 0 -- -- 64
2019-10-06 23:00:00 16.1 11 Noroeste 21 Noroeste 0 -- -- 62
2019-10-06 22:00:00 16.8 10 Oeste 30 Oeste 0 -- -- 61
2019-10-06 21:00:00 14.2 3 Norte 9 Noroeste 0 -- -- 74
2019-10-06 20:00:00 15.9 3 Sudeste 19 Noroeste 0 -- -- 64
2019-10-06 19:00:00 19 17 Noroeste 34 Oeste 0 -- -- 54
2019-10-06 18:00:00 19.6 21 Noroeste 35 Noroeste 0 -- -- 53
2019-10-06 17:00:00 19.9 20 Noroeste 33 Noroeste 0 -- -- 51
2019-10-06 16:00:00 19 17 Noroeste 32 Norte 0 -- -- 56
2019-10-06 15:00:00 19.1 21 Oeste 34 Noroeste 0 -- -- 55
2019-10-06 14:00:00 18.4 19 Noroeste 27 Oeste 0 -- -- 63
2019-10-06 13:00:00 17.3 16 Noroeste 22 Oeste 0 -- -- 69
2019-10-06 12:00:00 16 16 Noroeste 22 Noroeste 0 -- -- 76
2019-10-06 11:00:00 15.9 9 Noroeste 17 Noroeste 0 -- -- 75
2019-10-06 10:00:00 14 13 Noroeste 20 Noroeste 0 -- -- 94
2019-10-06 09:00:00 13.1 0 Calma 14 Noroeste 0 -- -- 100
2019-10-06 08:00:00 12.3 5 Noroeste 8 Noroeste 0 -- -- 100
2019-10-06 07:00:00 11.3 0 Calma 9 Noroeste 0 -- -- 100
2019-10-06 06:00:00 10.9 4 Sudeste 8 Sudeste 0 -- -- 99
2019-10-06 05:00:00 11.6 2 Sudeste 7 Este 0 -- -- 99
2019-10-06 04:00:00 12.7 0 Calma 9 Este 0 -- -- 97
2019-10-06 03:00:00 14.5 6 Este 11 Este 0 -- -- 99
2019-10-06 02:00:00 13 0 Calma 8 Este 0 -- -- 96
2019-10-06 01:00:00 14.9 5 Este 12 Este 0 -- -- 94
2019-10-06 00:00:00 14.9 6 Este 12 Este 0 -- -- 95
2019-10-05 23:00:00 15.3 7 Este 14 Sur 0 -- -- 95
2019-10-05 22:00:00 14.6 7 Sudeste 13 Sur 0 -- -- 95
2019-10-05 21:00:00 14.9 7 Sudeste 15 Sudeste 0 -- -- 93
2019-10-05 20:00:00 16.6 8 Sudeste 18 Sudoeste 0 -- -- 89
2019-10-05 19:00:00 18.3 11 Sudoeste 24 Sur 0 -- -- 80
2019-10-05 18:00:00 20.2 13 Sudoeste 22 Sur 0 -- -- 71
2019-10-05 17:00:00 22.3 11 Sudoeste 25 Oeste 0 -- -- 59
2019-10-05 16:00:00 23.6 13 Noroeste 24 Noroeste 0 -- -- 44
2019-10-05 15:00:00 22.3 14 Noroeste 22 Noroeste 0 -- -- 47
2019-10-05 14:00:00 21.3 12 Noroeste 21 Oeste 0 -- -- 49
2019-10-05 13:00:00 19.6 13 Noroeste 20 Noroeste 0 -- -- 55
2019-10-05 12:00:00 18.5 9 Noroeste 18 Noroeste 0 -- -- 62
2019-10-05 11:00:00 16 9 Noroeste 19 Noroeste 0 -- -- 73
2019-10-05 10:00:00 14 15 Noroeste 22 Noroeste 0 -- -- 82
2019-10-05 09:00:00 9.1 3 Sudeste 8 Sudeste 0 -- -- 98
2019-10-05 08:00:00 7.7 5 Sudeste 10 Sudeste 0 -- -- 98
2019-10-05 07:00:00 7.7 5 Este 9 Sudeste 0 -- -- 97
2019-10-05 06:00:00 8.5 6 Sudeste 11 Sudeste 0 -- -- 96
2019-10-05 05:00:00 9.5 7 Sudeste 9 Sudeste 0 -- -- 94
2019-10-05 04:00:00 9.7 3 Sudeste 7 Sudeste 0 -- -- 95
2019-10-05 03:00:00 10.4 4 Sudeste 9 Sudeste 0 -- -- 95
2019-10-05 02:00:00 10.6 7 Sudeste 11 Sudeste 0 -- -- 95
2019-10-05 01:00:00 10.4 8 Sudeste 9 Sudeste 0 -- -- 95
2019-10-05 00:00:00 10.7 5 Sudeste 9 Sudeste 0 -- -- 92
2019-10-04 23:00:00 12.2 8 Sudeste 13 Sudeste 0 -- -- 89
2019-10-04 22:00:00 12.8 6 Sudeste 15 Este 0 -- -- 84
2019-10-04 21:00:00 15.9 11 Sudeste 17 Este 0 -- -- 78
2019-10-04 20:00:00 16.8 3 Sudeste 11 Oeste 0 -- -- 63
2019-10-04 19:00:00 21.7 8 Oeste 30 Oeste 0 -- -- 49
2019-10-04 18:00:00 22.5 21 Noroeste 35 Noroeste 0 -- -- 47
2019-10-04 17:00:00 22.5 26 Noroeste 37 Noroeste 0 -- -- 48
2019-10-04 16:00:00 23 18 Noroeste 32 Noroeste 0 -- -- 43
2019-10-04 15:00:00 22.8 14 Noroeste 23 Noroeste 0 -- -- 38
2019-10-04 14:00:00 21.7 14 Noroeste 22 Noroeste 0 -- -- 38
2019-10-04 13:00:00 21.5 14 Noroeste 20 Oeste 0 -- -- 39
2019-10-04 12:00:00 20.3 10 Sur 18 Sudeste 0 -- -- 39
2019-10-04 11:00:00 18.5 5 Sudeste 10 Sudeste 0 -- -- 45
2019-10-04 10:00:00 13.2 0 Calma 6 Sudeste 0 -- -- 69
2019-10-04 09:00:00 5.1 6 Sudeste 9 Sudeste 0 -- -- 96
2019-10-04 08:00:00 2.2 4 Sudeste 6 Sudeste 0 -- -- 97
2019-10-04 07:00:00 2.4 4 Sudeste 7 Sudeste 0 -- -- 97
2019-10-04 06:00:00 3.1 2 Sudeste 6 Sudeste 0 -- -- 97
2019-10-04 05:00:00 4 3 Sudeste 8 Sudeste 0 -- -- 97
2019-10-04 04:00:00 4.6 4 Sudeste 8 Sudeste 0 -- -- 96
2019-10-04 03:00:00 5 5 Sudeste 8 Este 0 -- -- 95
2019-10-04 02:00:00 5.4 6 Sudeste 8 Sudeste 0 -- -- 94
2019-10-04 01:00:00 6.5 4 Sudeste 6 Sudeste 0 -- -- 91
2019-10-04 00:00:00 6.9 4 Sudeste 6 Nordeste 0 -- -- 86
2019-10-03 23:00:00 7.3 5 Sudeste 10 Sudeste 0 -- -- 83
2019-10-03 22:00:00 8.2 5 Sudeste 9 Sudeste 0 -- -- 78
2019-10-03 21:00:00 10 5 Sudeste 9 Sudeste 0 -- -- 71
2019-10-03 20:00:00 13.6 4 Sudeste 13 Oeste 0 -- -- 58
2019-10-03 19:00:00 19.4 9 Oeste 21 Noroeste 0 -- -- 42
2019-10-03 18:00:00 20.5 15 Noroeste 24 Oeste 0 -- -- 40
2019-10-03 17:00:00 20.4 16 Noroeste 30 Oeste 0 -- -- 40
2019-10-03 16:00:00 20.3 17 Oeste 30 Noroeste 0 -- -- 44
2019-10-03 15:00:00 19.2 22 Noroeste 32 Noroeste 0 -- -- 49
2019-10-03 14:00:00 17.1 25 Oeste 39 Noroeste 0 -- -- 58
2019-10-03 13:00:00 16.2 26 Noroeste 38 Noroeste 0 -- -- 64
2019-10-03 12:00:00 15.4 29 Noroeste 42 Noroeste 0 -- -- 67
2019-10-03 11:00:00 13.2 28 Noroeste 37 Noroeste 0 -- -- 77
2019-10-03 10:00:00 11.8 24 Noroeste 30 Oeste 0 -- -- 83
2019-10-03 09:00:00 10.3 12 Noroeste 16 Noroeste 0 -- -- 90
2019-10-03 08:00:00 9.2 9 Noroeste 17 Oeste 0 -- -- 92
2019-10-03 07:00:00 9.2 12 Noroeste 17 Noroeste 0 -- -- 91
2019-10-03 06:00:00 9.4 8 Noroeste 15 Noroeste 0 -- -- 91
2019-10-03 05:00:00 9.9 10 Noroeste 16 Noroeste 0 -- -- 88
2019-10-03 04:00:00 10.8 13 Noroeste 19 Noroeste 0 -- -- 85
2019-10-03 03:00:00 10.6 8 Noroeste 13 Noroeste 0 -- -- 86
2019-10-03 02:00:00 11.4 9 Noroeste 14 Noroeste 0 -- -- 81
2019-10-03 01:00:00 12.3 11 Noroeste 15 Noroeste 0 -- -- 77
2019-10-03 00:00:00 13.2 8 Noroeste 17 Oeste 0 -- -- 73
2019-10-02 23:00:00 14.9 13 Noroeste 34 Noroeste 0 -- -- 67
2019-10-02 22:00:00 15.9 14 Noroeste 31 Noroeste 0 -- -- 63
2019-10-02 21:00:00 17.1 21 Noroeste 34 Oeste 0 -- -- 60
2019-10-02 20:00:00 18.1 21 Noroeste 40 Oeste 0 -- -- 56
2019-10-02 19:00:00 20.5 21 Noroeste 37 Oeste 0 -- -- 49
2019-10-02 18:00:00 21.8 26 Noroeste 40 Noroeste 0 -- -- 44
2019-10-02 17:00:00 22.4 27 Noroeste 45 Noroeste 0 -- -- 40
2019-10-02 16:00:00 22.3 26 Noroeste 42 Noroeste 0 -- -- 41
2019-10-02 15:00:00 21.4 27 Noroeste 41 Noroeste 0 -- -- 44
2019-10-02 14:00:00 20.2 24 Noroeste 39 Oeste 0 -- -- 50
2019-10-02 13:00:00 18.7 22 Oeste 42 Noroeste 0 -- -- 56
2019-10-02 12:00:00 17 27 Noroeste 42 Noroeste 0 -- -- 59
2019-10-02 11:00:00 15.4 32 Noroeste 44 Noroeste 0 -- -- 64
2019-10-02 10:00:00 14.4 32 Noroeste 41 Noroeste 0 -- -- 67
2019-10-02 09:00:00 13.8 27 Noroeste 44 Oeste 0 -- -- 69
2019-10-02 08:00:00 13.4 19 Oeste 32 Oeste 0 -- -- 69
2019-10-02 07:00:00 14 12 Oeste 27 Oeste 0 -- -- 71
2019-10-02 06:00:00 14.9 14 Oeste 23 Oeste 0 -- -- 69
2019-10-02 05:00:00 15.1 8 Noroeste 22 Noroeste 0 -- -- 66
2019-10-02 04:00:00 15.9 14 Noroeste 23 Noroeste 0 -- -- 62
2019-10-02 03:00:00 15.6 6 Noroeste 15 Noroeste 0 -- -- 60
2019-10-02 02:00:00 14.5 3 Norte 10 Oeste 0 -- -- 67
2019-10-02 01:00:00 16.5 6 Noroeste 12 Noroeste 0 -- -- 61
2019-10-02 00:00:00 13.5 0 Calma 6 Noroeste 0 -- -- 79
2019-10-01 23:00:00 15.2 3 Sudeste 9 Noroeste 0 -- -- 73
2019-10-01 22:00:00 16.2 3 Noroeste 11 Oeste 0 -- -- 69
2019-10-01 21:00:00 17 5 Sudeste 6 Sudeste 0 -- -- 65
2019-10-01 20:00:00 21.8 2 Norte 23 Noroeste 0 -- -- 51
2019-10-01 19:00:00 24.8 18 Noroeste 28 Noroeste 0 -- -- 41
2019-10-01 18:00:00 25.4 19 Noroeste 30 Noroeste 0 -- -- 35
2019-10-01 17:00:00 26.7 20 Noroeste 28 Oeste 0 -- -- 31
2019-10-01 16:00:00 26.7 21 Noroeste 30 Oeste 0 -- -- 34
2019-10-01 15:00:00 26 19 Noroeste 28 Oeste 0 -- -- 34
2019-10-01 14:00:00 25.8 20 Noroeste 27 Noroeste 0 -- -- 40
2019-10-01 13:00:00 25.5 14 Noroeste 22 Noroeste 0 -- -- 53
2019-10-01 12:00:00 24.4 14 Noroeste 19 Noroeste 0 -- -- 52
2019-10-01 11:00:00 22.1 6 Noroeste 10 Noroeste 0 -- -- 60
2019-10-01 10:00:00 17.1 5 Sudeste 8 Sudeste 0 -- -- 96
2019-10-01 09:00:00 11.2 5 Sudeste 8 Sudeste 0 -- -- 100
2019-10-01 08:00:00 8.7 5 Sudeste 10 Sudeste 0 -- -- 100
2019-10-01 07:00:00 9.6 3 Sudeste 8 Este 0 -- -- 100
2019-10-01 06:00:00 9 5 Sudeste 9 Sudeste 0 -- -- 99
2019-10-01 05:00:00 9.5 5 Sudeste 9 Sudeste 0 -- -- 99
2019-10-01 04:00:00 9.8 7 Sudeste 9 Sudeste 0 -- -- 98
2019-10-01 03:00:00 10.9 5 Sudeste 8 Sudeste 0 -- -- 98
2019-10-01 02:00:00 12.8 4 Sudeste 12 Sudeste 0 -- -- 98
2019-10-01 01:00:00 14.8 2 Sudeste 12 Sudeste 0 -- -- 97
2019-10-01 00:00:00 16.5 10 Sudeste 18 Sudeste 0 -- -- 97
2019-09-30 23:00:00 17.1 12 Sudeste 18 Sudeste 0 -- -- 98
2019-09-30 22:00:00 17.4 11 Sudeste 21 Sudeste 0 -- -- 96
2019-09-30 21:00:00 17.7 12 Sudeste 21 Sudeste 0 -- -- 94
2019-09-30 20:00:00 18.5 13 Sudeste 21 Sudeste 0 -- -- 89
2019-09-30 19:00:00 20.3 12 Sur 27 Sudoeste 0 -- -- 81
2019-09-30 18:00:00 22.1 15 Sur 27 Sur 0 -- -- 73
2019-09-30 17:00:00 24.1 13 Sudoeste 27 Sudoeste 0 -- -- 65
2019-09-30 16:00:00 24.8 13 Sudoeste 25 Sur 0 -- -- 60
2019-09-30 15:00:00 25.6 10 Sudoeste 23 Sudoeste 0 -- -- 54
2019-09-30 14:00:00 24.7 10 Sur 21 Sudeste 0 -- -- 55
2019-09-30 13:00:00 24.2 10 Sur 19 Sudeste 0 -- -- 57
2019-09-30 12:00:00 23 10 Sur 22 Sudoeste 0 -- -- 63
2019-09-30 11:00:00 22.1 11 Sur 23 Sudeste 0 -- -- 63
2019-09-30 10:00:00 20.2 14 Sudeste 19 Sudeste 0 -- -- 75
2019-09-30 09:00:00 11.3 10 Sudeste 12 Sudeste 0 -- -- 94
2019-09-30 08:00:00 8.3 6 Sudeste 10 Sudeste 0 -- -- 97
2019-09-30 07:00:00 8.3 7 Sudeste 9 Sudeste 0 -- -- 96
2019-09-30 06:00:00 8.4 6 Sudeste 8 Sudeste 0 -- -- 96
2019-09-30 05:00:00 8.6 6 Sudeste 10 Sudeste 0 -- -- 96
2019-09-30 04:00:00 8.7 7 Sudeste 9 Sudeste 0 -- -- 95
2019-09-30 03:00:00 9.2 5 Sudeste 8 Sudeste 0 -- -- 95
2019-09-30 02:00:00 9.9 6 Sudeste 9 Sudeste 0 -- -- 95
2019-09-30 01:00:00 10.4 7 Sudeste 8 Sudeste 0 -- -- 94
2019-09-30 00:00:00 11.2 5 Sudeste 8 Sudeste 0 -- -- 89
2019-09-29 23:00:00 11.5 5 Sudeste 8 Sudeste 0 -- -- 83
2019-09-29 22:00:00 12.3 4 Sudeste 7 Sudeste 0 -- -- 71
2019-09-29 21:00:00 14.3 5 Sudeste 9 Sudeste 0 -- -- 60
2019-09-29 20:00:00 19.8 2 Este 18 Noroeste 0 -- -- 41
2019-09-29 19:00:00 25.9 13 Oeste 26 Noroeste 0 -- -- 31
2019-09-29 18:00:00 27.2 20 Noroeste 32 Noroeste 0 -- -- 27
2019-09-29 17:00:00 27.7 23 Noroeste 32 Noroeste 0 -- -- 26
2019-09-29 16:00:00 27.3 19 Noroeste 32 Oeste 0 -- -- 31
2019-09-29 15:00:00 26.2 21 Noroeste 29 Oeste 0 -- -- 38
2019-09-29 14:00:00 25.7 21 Noroeste 30 Noroeste 0 -- -- 40
2019-09-29 13:00:00 25.1 16 Noroeste 23 Noroeste 0 -- -- 47
2019-09-29 12:00:00 22.5 13 Noroeste 21 Noroeste 0 -- -- 64
2019-09-29 11:00:00 20.6 12 Noroeste 14 Noroeste 0 -- -- 78
2019-09-29 10:00:00 17 0 Calma 6 Sudeste 0 -- -- 100
2019-09-29 09:00:00 11.3 4 Sudeste 7 Sudeste 0 -- -- 100
2019-09-29 08:00:00 10 3 Sudeste 9 Sudeste 0 -- -- 100
2019-09-29 07:00:00 11.4 4 Sudeste 6 Sudeste 0 -- -- 100
2019-09-29 06:00:00 12.5 0 Calma 9 Este 0 -- -- 100
2019-09-29 05:00:00 12.8 2 Sudeste 5 Sudeste 0 -- -- 100
2019-09-29 04:00:00 12 4 Sudeste 8 Sudeste 0 -- -- 100
2019-09-29 03:00:00 11.5 7 Sudeste 10 Sudeste 0 -- -- 99
2019-09-29 02:00:00 12 7 Sudeste 10 Sudeste 0 -- -- 99
2019-09-29 01:00:00 12.9 8 Sudeste 10 Este 0 -- -- 99
2019-09-29 00:00:00 13.8 5 Sudeste 13 Sudeste 0 -- -- 97
2019-09-28 23:00:00 15.5 4 Sudeste 14 Este 0 -- -- 94
2019-09-28 22:00:00 15.8 5 Sudeste 17 Sudeste 0 -- -- 92
2019-09-28 21:00:00 16.9 10 Sudeste 17 Sur 0 -- -- 91
2019-09-28 20:00:00 18.2 7 Sur 24 Sudoeste 0 -- -- 85
2019-09-28 19:00:00 20.2 13 Sur 23 Sudoeste 0 -- -- 75
2019-09-28 18:00:00 21.7 13 Sudoeste 22 Sur 0 -- -- 69
2019-09-28 17:00:00 22.7 11 Sur 27 Sur 0 -- -- 64
2019-09-28 16:00:00 22.8 12 Sudoeste 23 Sudoeste 0 -- -- 63
2019-09-28 15:00:00 23.1 10 Sur 25 Sur 0 -- -- 63
2019-09-28 14:00:00 22.6 11 Sudoeste 23 Sur 0 -- -- 64
2019-09-28 13:00:00 21.7 12 Sudoeste 19 Sudoeste 0 -- -- 67
2019-09-28 12:00:00 21.9 10 Sur 18 Sur 0 -- -- 69
2019-09-28 11:00:00 20.4 10 Sudeste 22 Sur 0 -- -- 75
2019-09-28 10:00:00 19.6 12 Sudeste 19 Sudeste 0 -- -- 83
2019-09-28 09:00:00 17.1 6 Sudeste 8 Sudeste 0 -- -- 98
2019-09-28 08:00:00 16.8 6 Sudeste 10 Sudeste 0 -- -- 98
2019-09-28 07:00:00 16.9 6 Sudeste 13 Sudeste 0 -- -- 99
2019-09-28 06:00:00 16.1 6 Sudeste 9 Sudeste 0 -- -- 98
2019-09-28 05:00:00 16.2 6 Sudeste 10 Sudeste 0 -- -- 98
2019-09-28 04:00:00 17.4 7 Sudeste 12 Sudeste 0 -- -- 95
2019-09-28 03:00:00 18.1 8 Sudeste 13 Sudeste 0 -- -- 97
2019-09-28 02:00:00 17.8 6 Sudeste 13 Sudeste 0 -- -- 98
2019-09-28 01:00:00 17.7 9 Sudeste 19 Este 0 -- -- 97
2019-09-28 00:00:00 18.3 10 Este 17 Este 0 -- -- 97
2019-09-27 23:00:00 18.2 11 Sudeste 17 Sudeste 0 -- -- 97
2019-09-27 22:00:00 18.5 10 Este 15 Este 0 -- -- 94
2019-09-27 21:00:00 19 11 Este 18 Sur 0 -- -- 91
2019-09-27 20:00:00 20.5 12 Sudoeste 23 Sudoeste 0 -- -- 84
2019-09-27 19:00:00 23.3 9 Sudoeste 21 Sur 0 -- -- 72
2019-09-27 18:00:00 25.2 11 Sur 19 Sudeste 0 -- -- 63
2019-09-27 17:00:00 26.3 15 Oeste 26 Noroeste 0 -- -- 51
2019-09-27 16:00:00 25.4 13 Noroeste 27 Noroeste 0 -- -- 54
2019-09-27 15:00:00 25.2 8 Oeste 20 Oeste 0 -- -- 55
2019-09-27 14:00:00 24.6 6 Noroeste 18 Sur 0 -- -- 57
2019-09-27 13:00:00 24.8 8 Sudoeste 16 Sudoeste 0 -- -- 62
2019-09-27 12:00:00 23.5 8 Sudoeste 21 Sur 0 -- -- 64
2019-09-27 11:00:00 21.8 13 Sur 19 Sur 0 -- -- 73
2019-09-27 10:00:00 20.2 10 Sur 15 Sur 0 -- -- 82
2019-09-27 09:00:00 15.8 5 Sudeste 11 Sudeste 0 -- -- 100
2019-09-27 08:00:00 13 8 Sudeste 12 Sudeste 0 -- -- 100
2019-09-27 07:00:00 12.1 5 Sudeste 10 Sudeste 0 -- -- 100
2019-09-27 06:00:00 11.3 8 Sudeste 13 Sudeste 0 -- -- 98
2019-09-27 05:00:00 11.9 9 Sudeste 14 Sudeste 0 -- -- 99
2019-09-27 04:00:00 11.6 5 Sudeste 8 Este 0 -- -- 99
2019-09-27 03:00:00 12.3 4 Sudeste 9 Sudeste 0 -- -- 96
2019-09-27 02:00:00 13.3 9 Sudeste 13 Sudeste 0 -- -- 97
2019-09-27 01:00:00 13.8 5 Sudeste 8 Sudeste 0 -- -- 95
2019-09-27 00:00:00 14.6 4 Sudeste 14 Sudeste 0 -- -- 91
2019-09-26 23:00:00 15.5 5 Sudeste 11 Este 0 -- -- 87
2019-09-26 22:00:00 16.9 4 Sudeste 14 Este 0 -- -- 83
2019-09-26 21:00:00 17.9 6 Sudeste 15 Sur 0 -- -- 78
2019-09-26 20:00:00 19.7 8 Este 21 Sudoeste 0 -- -- 65
2019-09-26 19:00:00 22.4 12 Sudoeste 20 Sudoeste 0 -- -- 55
2019-09-26 18:00:00 25 8 Sudoeste 20 Noroeste 0 -- -- 44
2019-09-26 17:00:00 25.1 15 Noroeste 24 Noroeste 0 -- -- 41
2019-09-26 16:00:00 25 13 Noroeste 26 Noroeste 0 -- -- 41
2019-09-26 15:00:00 24.1 15 Noroeste 23 Noroeste 0 -- -- 43
2019-09-26 14:00:00 23 13 Noroeste 24 Noroeste 0 -- -- 47
2019-09-26 13:00:00 21.9 12 Noroeste 21 Noroeste 0 -- -- 49
2019-09-26 12:00:00 20.8 13 Noroeste 21 Oeste 0 -- -- 53
2019-09-26 11:00:00 19.6 9 Noroeste 14 Noroeste 0 -- -- 57
2019-09-26 10:00:00 17.1 0 Calma 5 Este 0 -- -- 68
2019-09-26 09:00:00 10.7 3 Sudeste 6 Sudeste 0 -- -- 99
2019-09-26 08:00:00 8 4 Sudeste 8 Sudeste 0 -- -- 98
2019-09-26 07:00:00 8.4 4 Sudeste 7 Este 0 -- -- 98
2019-09-26 06:00:00 9.1 4 Sudeste 6 Sudeste 0 -- -- 98
2019-09-26 05:00:00 10 4 Sudeste 6 Este 0 -- -- 98
2019-09-26 04:00:00 11 2 Sudeste 5 Sudeste 0 -- -- 98
2019-09-26 03:00:00 12 2 Este 6 Nordeste 0 -- -- 97
2019-09-26 02:00:00 12.9 3 Sudeste 6 Este 0 -- -- 96
2019-09-26 01:00:00 13.4 4 Nordeste 8 Nordeste 0 -- -- 96
2019-09-26 00:00:00 13.9 2 Este 10 Sudoeste 0 -- -- 94
2019-09-25 23:00:00 16 9 Sudoeste 15 Sur 0 -- -- 89
2019-09-25 22:00:00 16.3 10 Sudoeste 20 Sudoeste 0 -- -- 88
2019-09-25 21:00:00 16.5 9 Sudoeste 18 Sudoeste 0 -- -- 86
2019-09-25 20:00:00 17.4 10 Sudoeste 23 Noroeste 0 -- -- 81
2019-09-25 19:00:00 20.2 12 Oeste 36 Oeste 0 -- -- 47
2019-09-25 18:00:00 21.8 23 Noroeste 37 Noroeste 0 -- -- 43
2019-09-25 17:00:00 22.3 24 Noroeste 40 Noroeste 0 -- -- 42
2019-09-25 16:00:00 22.2 23 Noroeste 39 Oeste 0 -- -- 43
2019-09-25 15:00:00 22 23 Noroeste 39 Noroeste 0 -- -- 43
2019-09-25 14:00:00 21.3 24 Noroeste 37 Noroeste 0 -- -- 46
2019-09-25 13:00:00 20.8 25 Noroeste 36 Noroeste 0 -- -- 46
2019-09-25 12:00:00 20.1 20 Noroeste 32 Noroeste 0 -- -- 53
2019-09-25 11:00:00 18.8 19 Oeste 33 Oeste 0 -- -- 61
2019-09-25 10:00:00 18.3 17 Noroeste 28 Noroeste 0 -- -- 67
2019-09-25 09:00:00 15.4 10 Noroeste 18 Noroeste 0 -- -- 82
2019-09-25 08:00:00 13.1 4 Sudeste 9 Oeste 0 -- -- 89
2019-09-25 07:00:00 13.7 4 Sur 8 Sudeste 0 -- -- 87
2019-09-25 06:00:00 13.5 2 Noroeste 7 Noroeste 0 -- -- 87
2019-09-25 05:00:00 14 5 Noroeste 8 Sudeste 0 -- -- 85
2019-09-25 04:00:00 12.7 4 Sudeste 8 Sudeste 0 -- -- 90
2019-09-25 03:00:00 12.5 7 Sudeste 8 Sudeste 0 -- -- 90
2019-09-25 02:00:00 12.8 6 Sudeste 8 Sudeste 0 -- -- 88
2019-09-25 01:00:00 13.4 5 Sudeste 8 Sudeste 0 -- -- 85
2019-09-25 00:00:00 13.7 6 Sudeste 8 Sudeste 0 -- -- 81
2019-09-24 23:00:00 14.3 5 Sudeste 6 Sudeste 0 -- -- 78
2019-09-24 22:00:00 15.6 4 Sudeste 5 Sudeste 0 -- -- 73
2019-09-24 21:00:00 18.3 3 Sudeste 6 Sudeste 0 -- -- 63
2019-09-24 20:00:00 22.8 0 Calma 23 Noroeste 0 -- -- 48
2019-09-24 19:00:00 25.2 22 Noroeste 31 Oeste 0 -- -- 39
2019-09-24 18:00:00 26.2 23 Noroeste 37 Noroeste 0 -- -- 36
2019-09-24 17:00:00 26.2 23 Noroeste 35 Noroeste 0 -- -- 36
2019-09-24 16:00:00 25.7 24 Noroeste 41 Noroeste 0 -- -- 36
2019-09-24 15:00:00 25.3 23 Oeste 40 Oeste 0 -- -- 36
2019-09-24 14:00:00 24.2 24 Noroeste 38 Noroeste 0 -- -- 39
2019-09-24 13:00:00 22.6 24 Noroeste 41 Noroeste 0 -- -- 44
2019-09-24 12:00:00 21.7 25 Noroeste 35 Oeste 0 -- -- 47
2019-09-24 11:00:00 20.3 19 Noroeste 27 Noroeste 0 -- -- 52
2019-09-24 10:00:00 17.9 13 Noroeste 18 Noroeste 0 -- -- 65
2019-09-24 09:00:00 11.5 0 Calma 6 Sudeste 0 -- -- 98
2019-09-24 08:00:00 8 6 Sudeste 6 Sudeste 0 -- -- 99
2019-09-24 07:00:00 7.9 5 Sudeste 6 Sudeste 0 -- -- 99
2019-09-24 06:00:00 8.1 4 Sudeste 6 Sudeste 0 -- -- 98
2019-09-24 05:00:00 8.6 5 Sudeste 6 Sudeste 0 -- -- 98
2019-09-24 04:00:00 9.2 5 Sudeste 6 Sudeste 0 -- -- 98
2019-09-24 03:00:00 9.6 4 Sudeste 6 Sudeste 0 -- -- 97
2019-09-24 02:00:00 10.3 3 Sudeste 5 Sudeste 0 -- -- 96
2019-09-24 01:00:00 11.4 3 Sudeste 5 Sudeste 0 -- -- 96
2019-09-24 00:00:00 11.7 3 Sudeste 6 Sudeste 0 -- -- 96
2019-09-23 23:00:00 12.1 3 Este 7 Sudeste 0 -- -- 94
2019-09-23 22:00:00 13.9 0 Calma 6 Sudeste 0 -- -- 89
2019-09-23 21:00:00 15.4 2 Este 6 Este 0 -- -- 85
2019-09-23 20:00:00 17.6 4 Sudeste 17 Noroeste 0 -- -- 75
2019-09-23 19:00:00 20.5 15 Noroeste 29 Noroeste 0 -- -- 44
2019-09-23 18:00:00 21 19 Noroeste 30 Oeste 0 -- -- 45
2019-09-23 17:00:00 21.2 18 Noroeste 37 Noroeste 0 -- -- 42
2019-09-23 16:00:00 21.5 23 Noroeste 39 Noroeste 0 -- -- 40
2019-09-23 15:00:00 21.5 20 Noroeste 36 Noroeste 0 -- -- 42
2019-09-23 14:00:00 20.6 24 Noroeste 33 Noroeste 0 -- -- 45
2019-09-23 13:00:00 19.9 22 Noroeste 31 Noroeste 0 -- -- 49
2019-09-23 12:00:00 18.9 19 Noroeste 30 Noroeste 0 -- -- 52
2019-09-23 11:00:00 17.5 16 Noroeste 23 Noroeste 0 -- -- 58
2019-09-23 10:00:00 14.9 9 Noroeste 14 Noroeste 0 -- -- 67
2019-09-23 09:00:00 9.1 4 Sudeste 6 Sudeste 0 -- -- 94
2019-09-23 08:00:00 7.8 3 Sudeste 7 Sudeste 0 -- -- 94
2019-09-23 07:00:00 8 5 Sudeste 8 Sudeste 0 -- -- 93
2019-09-23 06:00:00 8.3 5 Sudeste 9 Sudeste 0 -- -- 94
2019-09-23 05:00:00 9.3 3 Sudeste 6 Sudeste 0 -- -- 91
2019-09-23 04:00:00 10.7 3 Sudeste 5 Norte 0 -- -- 89
2019-09-23 03:00:00 13 0 Calma 9 Noroeste 0 -- -- 79
2019-09-23 02:00:00 14.7 8 Noroeste 15 Noroeste 0 -- -- 76
2019-09-23 01:00:00 14.9 4 Noroeste 7 Noroeste 0 -- -- 80
2019-09-23 00:00:00 16.2 0 Calma 17 Noroeste 0 -- -- 75
2019-09-22 23:00:00 16.4 9 Noroeste 14 Noroeste 0 -- -- 78
2019-09-22 22:00:00 15.9 3 Noroeste 8 Nordeste 0 -- -- 80
2019-09-22 21:00:00 18.9 3 Noroeste 33 Noroeste 0 -- -- 66
2019-09-22 20:00:00 20.7 25 Noroeste 44 Noroeste 0 -- -- 58
2019-09-22 19:00:00 22.4 23 Noroeste 36 Noroeste 0 -- -- 58
2019-09-22 18:00:00 24.2 23 Noroeste 33 Oeste 0 -- -- 51
2019-09-22 17:00:00 24 23 Noroeste 35 Noroeste 0 -- -- 56
2019-09-22 16:00:00 24.7 23 Noroeste 35 Oeste 0 -- -- 52
2019-09-22 15:00:00 23.9 18 Noroeste 32 Noroeste 0 -- -- 55
2019-09-22 14:00:00 23.1 21 Noroeste 30 Oeste 0 -- -- 60
2019-09-22 13:00:00 21.9 19 Noroeste 28 Noroeste 0 -- -- 65
2019-09-22 12:00:00 21.3 15 Noroeste 23 Noroeste 0 -- -- 70
2019-09-22 11:00:00 20.1 10 Noroeste 15 Oeste 0 -- -- 81
2019-09-22 10:00:00 18.3 3 Sudeste 6 Este 0 -- -- 100
2019-09-22 09:00:00 14.8 3 Sudeste 6 Este 0 -- -- 100
2019-09-22 08:00:00 14.3 2 Sudeste 6 Sudeste 0 -- -- 99
2019-09-22 07:00:00 14.8 4 Sudeste 10 Este 0 -- -- 98
2019-09-22 06:00:00 15.5 0 Calma 12 Este 0 -- -- 98
2019-09-22 05:00:00 16.1 8 Sudeste 14 Sudeste 0 -- -- 98
2019-09-22 04:00:00 15.7 6 Sudeste 16 Este 0 -- -- 98
2019-09-22 03:00:00 15.7 9 Sudeste 17 Sudeste 0 -- -- 98
2019-09-22 02:00:00 16.3 10 Sudeste 16 Sudeste 0 -- -- 98
2019-09-22 01:00:00 15.9 12 Sudeste 18 Sudeste 0 -- -- 98
2019-09-22 00:00:00 15.9 10 Sudeste 17 Sur 0 -- -- 98
2019-09-21 23:00:00 16.1 8 Sudeste 17 Sudeste 0 -- -- 97
2019-09-21 22:00:00 16.1 12 Sudeste 18 Sudeste 0 -- -- 97
2019-09-21 21:00:00 16 9 Sudeste 12 Sudeste 0 -- -- 97
2019-09-21 20:00:00 16.7 4 Sudeste 9 Sur 0 -- -- 94
2019-09-21 19:00:00 18.2 8 Sudeste 23 Sur 0 -- -- 90
2019-09-21 18:00:00 18.5 11 Sudeste 16 Sudeste 0.4 -- -- 96
2019-09-21 17:00:00 18.2 9 Sudeste 20 Nordeste 4.8 -- -- 95
2019-09-21 16:00:00 18.4 15 Noroeste 30 Noroeste 4 -- -- 91
2019-09-21 15:00:00 21.1 10 Sudeste 27 Sudeste 0 -- -- 83
2019-09-21 14:00:00 22.3 9 Sudeste 20 Sudeste 0 -- -- 76
2019-09-21 13:00:00 19.8 13 Sudeste 20 Sudeste 0 -- -- 87
2019-09-21 12:00:00 17.2 6 Este 16 Sudeste 0.6 -- -- 95
2019-09-21 11:00:00 17.5 5 Sudeste 9 Sudeste 0 -- -- 95
2019-09-21 10:00:00 15.6 5 Norte 26 Sudeste 1.2 -- -- 96
2019-09-21 09:00:00 16.3 16 Sudeste 26 Sudeste 1.6 -- -- 89
2019-09-21 08:00:00 16.5 8 Sudeste 16 Sudeste 0 -- -- 91
2019-09-21 07:00:00 16.3 9 Sudeste 18 Sudeste 0 -- -- 91
2019-09-21 06:00:00 16.7 9 Sudeste 22 Este 0 -- -- 89
2019-09-21 05:00:00 16.9 9 Este 19 Este 0 -- -- 88
2019-09-21 04:00:00 17 10 Sudeste 16 Sudeste 0 -- -- 89
2019-09-21 03:00:00 16.8 5 Sudeste 16 Este 0 -- -- 90
2019-09-21 02:00:00 17.2 11 Sudeste 25 Este 0 -- -- 89
2019-09-21 01:00:00 17.4 9 Sudeste 27 Sudeste 0 -- -- 88
2019-09-21 00:00:00 17.5 14 Sudeste 28 Sudeste 0 -- -- 89
2019-09-20 23:00:00 17.3 15 Sudeste 26 Sudeste 0 -- -- 88
2019-09-20 22:00:00 17 14 Sudeste 21 Sudeste 0 -- -- 86
2019-09-20 21:00:00 18.3 9 Sudeste 16 Sudeste 0 -- -- 77
2019-09-20 20:00:00 19.8 11 Sudeste 27 Sudeste 0 -- -- 68
2019-09-20 19:00:00 21.7 11 Sur 27 Sudeste 0 -- -- 59
2019-09-20 18:00:00 23.5 15 Sudeste 27 Sudeste 0 -- -- 55
2019-09-20 17:00:00 25.1 17 Sudeste 31 Sudeste 0 -- -- 45
2019-09-20 16:00:00 25.7 15 Sudeste 28 Sudeste 0 -- -- 44
2019-09-20 15:00:00 25.7 11 Sudeste 30 Sudeste 0 -- -- 45
2019-09-20 14:00:00 25.1 13 Este 28 Sudeste 0 -- -- 45
2019-09-20 13:00:00 23.5 15 Sudeste 27 Sudeste 0 -- -- 51
2019-09-20 12:00:00 22.6 16 Sudeste 28 Sudeste 0 -- -- 54
2019-09-20 11:00:00 20.8 17 Sudeste 28 Sudeste 0 -- -- 62
2019-09-20 10:00:00 19.7 18 Sudeste 26 Sudeste 0 -- -- 66
2019-09-20 09:00:00 15.5 4 Sudeste 12 Sudeste 0 -- -- 90
2019-09-20 08:00:00 10.7 8 Sudeste 10 Sudeste 0 -- -- 98
2019-09-20 07:00:00 10 6 Sudeste 9 Sudeste 0 -- -- 98
2019-09-20 06:00:00 10.2 7 Sudeste 12 Sudeste 0 -- -- 97
2019-09-20 05:00:00 11 9 Sudeste 13 Sudeste 0 -- -- 97
2019-09-20 04:00:00 11.1 8 Sudeste 10 Sudeste 0 -- -- 96
2019-09-20 03:00:00 11.2 9 Sudeste 12 Sudeste 0 -- -- 96
2019-09-20 02:00:00 11.8 8 Sudeste 13 Sudeste 0 -- -- 95
2019-09-20 01:00:00 12.5 8 Sudeste 12 Sudeste 0 -- -- 93
2019-09-20 00:00:00 13.4 7 Sudeste 12 Sudeste 0 -- -- 92
2019-09-19 23:00:00 15.3 7 Este 12 Sudeste 0 -- -- 88
2019-09-19 22:00:00 16.2 11 Sudeste 17 Sudeste 0 -- -- 84
2019-09-19 21:00:00 18.1 12 Sudeste 19 Sudeste 0 -- -- 76
2019-09-19 20:00:00 19.3 11 Sudeste 24 Sudeste 0 -- -- 70
2019-09-19 19:00:00 20.9 14 Sur 29 Sur 0 -- -- 66
2019-09-19 18:00:00 21.6 20 Sur 35 Sur 0 -- -- 66
2019-09-19 17:00:00 22.2 18 Sur 32 Sur 0 -- -- 65
2019-09-19 16:00:00 24.3 16 Sur 32 Sur 0 -- -- 56
2019-09-19 15:00:00 26.7 8 Noroeste 19 Oeste 0 -- -- 41
2019-09-19 14:00:00 26.8 11 Noroeste 19 Oeste 0 -- -- 41
2019-09-19 13:00:00 25.1 7 Noroeste 17 Noroeste 0 -- -- 45
2019-09-19 12:00:00 24.8 6 Oeste 15 Oeste 0 -- -- 48
2019-09-19 11:00:00 22.4 6 Sur 13 Sudoeste 0 -- -- 56
2019-09-19 10:00:00 20.7 3 Este 10 Sudeste 0 -- -- 62
2019-09-19 09:00:00 16.5 6 Sudeste 13 Sudeste 0 -- -- 83
2019-09-19 08:00:00 12.2 9 Sudeste 13 Sudeste 0 -- -- 90
2019-09-19 07:00:00 12.1 9 Sudeste 13 Sudeste 0 -- -- 90
2019-09-19 06:00:00 12.4 7 Sudeste 10 Sudeste 0 -- -- 88
2019-09-19 05:00:00 14 7 Sudeste 9 Sudeste 0 -- -- 84
2019-09-19 04:00:00 14.6 8 Sudeste 11 Sudeste 0 -- -- 84
2019-09-19 03:00:00 14.6 8 Sudeste 11 Sudeste 0 -- -- 85
2019-09-19 02:00:00 14.7 3 Sudeste 9 Sudeste 0 -- -- 84
2019-09-19 01:00:00 14.4 8 Sudeste 10 Sudeste 0 -- -- 84
2019-09-19 00:00:00 14.5 3 Sudeste 8 Este 0 -- -- 84
2019-09-18 23:00:00 15.5 6 Sudeste 8 Sudeste 0 -- -- 83
2019-09-18 22:00:00 19 8 Sudeste 19 Sudeste 0 -- -- 74
2019-09-18 21:00:00 19.3 3 Sudeste 13 Sudeste 0 -- -- 76
2019-09-18 20:00:00 21.8 5 Sudeste 21 Sudoeste 0 -- -- 67
2019-09-18 19:00:00 23.1 12 Sudoeste 25 Sur 0 -- -- 63
2019-09-18 18:00:00 24 12 Sudoeste 26 Sur 0 -- -- 56
2019-09-18 17:00:00 24.8 11 Sur 22 Sur 0 -- -- 52
2019-09-18 16:00:00 27.4 9 Sudoeste 21 Sudoeste 0 -- -- 42
2019-09-18 15:00:00 28.9 13 Noroeste 22 Oeste 0 -- -- 38
2019-09-18 14:00:00 28.1 14 Noroeste 23 Oeste 0 -- -- 40
2019-09-18 13:00:00 26.7 12 Noroeste 20 Noroeste 0 -- -- 44
2019-09-18 12:00:00 25.5 11 Noroeste 15 Noroeste 0 -- -- 46
2019-09-18 11:00:00 23.3 8 Noroeste 16 Noroeste 0 -- -- 52
2019-09-18 10:00:00 20.5 8 Noroeste 14 Noroeste 0 -- -- 61
2019-09-18 09:00:00 14.7 3 Este 6 Sudeste 0 -- -- 89
2019-09-18 08:00:00 11.2 4 Sudeste 8 Sudeste 0 -- -- 95
2019-09-18 07:00:00 11 5 Sudeste 9 Sudeste 0 -- -- 95
2019-09-18 06:00:00 10.8 6 Sudeste 8 Sudeste 0 -- -- 95
2019-09-18 05:00:00 10.9 6 Sudeste 9 Sudeste 0 -- -- 95
2019-09-18 04:00:00 11.3 5 Sudeste 8 Sudeste 0 -- -- 91
2019-09-18 03:00:00 12 5 Sudeste 8 Sudeste 0 -- -- 88
2019-09-18 02:00:00 12.6 4 Sudeste 8 Sudeste 0 -- -- 88
2019-09-18 01:00:00 13.3 7 Sudeste 9 Sudeste 0 -- -- 86
2019-09-18 00:00:00 14.7 4 Sudeste 10 Sudeste 0 -- -- 80
2019-09-17 23:00:00 15.5 7 Sudeste 15 Sudeste 0 -- -- 77
2019-09-17 22:00:00 15.9 8 Sudeste 12 Sudeste 0 -- -- 76
2019-09-17 21:00:00 17.4 8 Sudeste 10 Sudeste 0 -- -- 71